createdAt,value
2018-10-07T00:00:08.451Z,19.70
2018-10-07T00:02:37.274Z,19.60
2018-10-07T00:05:08.030Z,19.60
2018-10-07T00:07:36.875Z,19.60
2018-10-07T00:10:05.760Z,19.50
2018-10-07T00:12:34.606Z,19.50
2018-10-07T00:15:03.813Z,19.40
2018-10-07T00:17:32.682Z,19.40
2018-10-07T00:20:01.514Z,19.40
2018-10-07T00:22:30.353Z,19.40
2018-10-07T00:24:59.522Z,19.30
2018-10-07T00:27:28.354Z,19.30
2018-10-07T00:29:57.214Z,19.30
2018-10-07T00:32:26.130Z,19.30
2018-10-07T00:34:55.003Z,19.20
2018-10-07T00:37:24.411Z,19.20
2018-10-07T00:39:53.266Z,19.20
2018-10-07T00:42:22.168Z,19.10
2018-10-07T00:44:51.652Z,19.10
2018-10-07T00:47:20.498Z,19.10
2018-10-07T00:49:49.338Z,19.00
2018-10-07T00:52:18.163Z,19.00
2018-10-07T00:54:47.034Z,19.00
2018-10-07T00:57:15.862Z,18.90
2018-10-07T00:59:45.040Z,18.90
2018-10-07T01:02:13.868Z,18.90
2018-10-07T01:04:42.724Z,18.80
2018-10-07T01:07:11.570Z,18.80
2018-10-07T01:09:40.386Z,18.70
2018-10-07T01:12:09.210Z,18.70
2018-10-07T01:14:38.057Z,18.70
2018-10-07T01:17:07.386Z,18.70
2018-10-07T01:19:36.197Z,18.60
2018-10-07T01:22:05.264Z,18.60
2018-10-07T01:24:34.076Z,18.60
2018-10-07T01:27:03.323Z,18.60
2018-10-07T01:29:32.231Z,18.60
2018-10-07T01:32:01.034Z,18.60
2018-10-07T01:34:29.907Z,17.20
2018-10-07T01:36:58.716Z,18.60
2018-10-07T01:39:34.209Z,18.50
2018-10-07T01:42:03.301Z,18.50
2018-10-07T01:44:32.095Z,18.50
2018-10-07T01:47:00.926Z,18.50
2018-10-07T01:49:29.746Z,18.50
2018-10-07T01:51:58.571Z,18.50
2018-10-07T01:54:27.400Z,18.50
2018-10-07T01:56:56.279Z,18.50
2018-10-07T01:59:25.236Z,18.40
2018-10-07T02:01:53.962Z,18.40
2018-10-07T02:04:23.319Z,18.40
2018-10-07T02:06:52.258Z,18.40
2018-10-07T02:09:21.205Z,18.40
2018-10-07T02:11:50.039Z,18.30
2018-10-07T02:14:18.864Z,18.30
2018-10-07T02:16:47.695Z,18.30
2018-10-07T02:19:16.539Z,18.30
2018-10-07T02:21:45.412Z,18.20
2018-10-07T02:24:14.276Z,18.20
2018-10-07T02:26:43.495Z,18.20
2018-10-07T02:29:12.818Z,18.10
2018-10-07T02:31:41.763Z,18.10
2018-10-07T02:34:10.641Z,18.10
2018-10-07T02:36:39.503Z,18.10
2018-10-07T02:39:09.310Z,18.00
2018-10-07T02:41:38.208Z,18.00
2018-10-07T02:44:07.046Z,18.00
2018-10-07T02:46:35.945Z,18.00
2018-10-07T02:49:05.157Z,18.00
2018-10-07T02:51:34.266Z,18.00
2018-10-07T02:54:03.094Z,18.00
2018-10-07T02:56:31.951Z,18.00
2018-10-07T02:59:00.760Z,18.00
2018-10-07T03:01:29.715Z,18.00
2018-10-07T03:03:58.544Z,18.00
2018-10-07T03:06:27.355Z,18.00
2018-10-07T03:08:56.176Z,18.00
2018-10-07T03:11:25.113Z,18.00
2018-10-07T03:13:53.907Z,18.00
2018-10-07T03:16:22.712Z,18.00
2018-10-07T03:18:51.526Z,18.00
2018-10-07T03:21:20.346Z,18.00
2018-10-07T03:23:49.183Z,18.00
2018-10-07T03:26:18.074Z,18.00
2018-10-07T03:28:46.935Z,18.00
2018-10-07T03:31:16.188Z,18.00
2018-10-07T03:33:45.311Z,17.90
2018-10-07T03:36:14.129Z,17.90
2018-10-07T03:38:42.980Z,17.90
2018-10-07T03:41:11.822Z,17.90
2018-10-07T03:43:40.669Z,17.90
2018-10-07T03:46:09.509Z,17.80
2018-10-07T03:48:38.343Z,17.80
2018-10-07T03:51:07.514Z,17.80
2018-10-07T03:53:36.366Z,17.70
2018-10-07T03:56:05.664Z,17.70
2018-10-07T03:58:34.497Z,17.70
2018-10-07T04:01:03.370Z,17.70
2018-10-07T04:03:32.316Z,17.70
2018-10-07T04:06:01.139Z,17.60
2018-10-07T04:08:29.956Z,17.60
2018-10-07T04:10:58.847Z,17.60
2018-10-07T04:13:30.702Z,17.60
2018-10-07T04:15:59.826Z,17.70
2018-10-07T04:18:28.639Z,17.70
2018-10-07T04:20:57.479Z,17.70
2018-10-07T04:23:26.342Z,17.70
2018-10-07T04:25:55.175Z,17.70
2018-10-07T04:28:23.987Z,17.80
2018-10-07T04:30:52.827Z,17.80
2018-10-07T04:33:22.007Z,17.90
2018-10-07T04:35:50.863Z,17.90
2018-10-07T04:38:19.955Z,18.00
2018-10-07T04:40:48.778Z,18.10
2018-10-07T04:43:17.586Z,18.10
2018-10-07T04:45:46.424Z,18.10
2018-10-07T04:48:15.246Z,18.20
2018-10-07T04:50:44.267Z,18.20
2018-10-07T04:53:13.126Z,18.20
2018-10-07T04:55:41.972Z,18.20
2018-10-07T04:58:10.793Z,18.20
2018-10-07T05:00:39.840Z,18.30
2018-10-07T05:03:08.675Z,18.30
2018-10-07T05:05:37.527Z,18.30
2018-10-07T05:08:06.934Z,18.40
2018-10-07T05:10:49.863Z,18.40
2018-10-07T05:13:23.118Z,18.40
2018-10-07T05:15:54.639Z,18.40
2018-10-07T05:18:23.520Z,18.40
2018-10-07T05:20:53.137Z,18.50
2018-10-07T05:23:22.219Z,18.50
2018-10-07T05:25:51.111Z,18.50
2018-10-07T05:28:19.970Z,18.50
2018-10-07T05:30:48.838Z,18.50
2018-10-07T05:33:17.674Z,18.50
2018-10-07T05:35:47.001Z,18.40
2018-10-07T05:38:15.835Z,18.40
2018-10-07T05:40:44.743Z,18.40
2018-10-07T05:43:14.038Z,18.40
2018-10-07T05:45:42.876Z,18.40
2018-10-07T05:48:11.697Z,18.30
2018-10-07T05:50:40.547Z,18.30
2018-10-07T05:53:09.399Z,18.30
2018-10-07T05:55:38.318Z,18.30
2018-10-07T05:58:07.126Z,18.30
2018-10-07T06:00:37.028Z,18.20
2018-10-07T06:03:22.266Z,18.20
2018-10-07T06:05:52.329Z,18.20
2018-10-07T06:08:22.048Z,18.20
2018-10-07T06:10:50.918Z,18.20
2018-10-07T06:13:19.788Z,18.20
2018-10-07T06:15:48.675Z,18.20
2018-10-07T06:18:17.527Z,18.20
2018-10-07T06:20:46.359Z,18.20
2018-10-07T06:23:15.195Z,18.10
2018-10-07T06:25:44.235Z,18.10
2018-10-07T06:28:13.031Z,18.20
2018-10-07T06:30:41.829Z,18.20
2018-10-07T06:33:10.703Z,18.20
2018-10-07T06:35:39.525Z,18.20
2018-10-07T06:38:08.611Z,18.10
2018-10-07T06:40:37.459Z,18.10
2018-10-07T06:43:06.300Z,18.10
2018-10-07T06:45:35.127Z,18.10
2018-10-07T06:48:04.108Z,18.10
2018-10-07T06:50:32.933Z,18.00
2018-10-07T06:53:01.755Z,18.00
2018-10-07T06:55:30.583Z,18.00
2018-10-07T06:57:59.481Z,18.00
2018-10-07T07:00:28.310Z,17.90
2018-10-07T07:02:57.173Z,17.90
2018-10-07T07:05:25.958Z,17.90
2018-10-07T07:07:54.771Z,17.90
2018-10-07T07:10:24.134Z,17.90
2018-10-07T07:12:53.053Z,17.90
2018-10-07T07:15:21.860Z,17.90
2018-10-07T07:17:50.681Z,17.90
2018-10-07T07:20:19.561Z,18.00
2018-10-07T07:22:48.328Z,18.00
2018-10-07T07:25:17.184Z,18.00
2018-10-07T07:27:46.006Z,18.10
2018-10-07T07:30:14.852Z,18.10
2018-10-07T07:32:44.191Z,18.10
2018-10-07T07:35:13.029Z,18.10
2018-10-07T07:37:41.827Z,18.10
2018-10-07T07:40:10.996Z,18.10
2018-10-07T07:42:39.827Z,18.10
2018-10-07T07:45:08.892Z,18.10
2018-10-07T07:47:37.988Z,18.00
2018-10-07T07:50:07.200Z,18.00
2018-10-07T07:52:35.999Z,18.00
2018-10-07T07:55:05.137Z,17.90
2018-10-07T07:57:34.020Z,17.90
2018-10-07T08:00:02.852Z,17.80
2018-10-07T08:02:31.667Z,17.70
2018-10-07T08:05:00.463Z,17.70
2018-10-07T08:07:29.335Z,17.60
2018-10-07T08:09:58.136Z,17.50
2018-10-07T08:12:26.953Z,17.50
2018-10-07T08:14:55.767Z,17.50
2018-10-07T08:17:24.751Z,17.40
2018-10-07T08:19:53.607Z,17.40
2018-10-07T08:22:22.423Z,17.40
2018-10-07T08:24:51.278Z,17.30
2018-10-07T08:27:20.068Z,17.30
2018-10-07T08:29:48.899Z,17.30
2018-10-07T08:32:17.732Z,17.30
2018-10-07T08:34:46.532Z,17.30
2018-10-07T08:37:15.378Z,17.20
2018-10-07T08:39:44.555Z,17.20
2018-10-07T08:42:14.053Z,17.10
2018-10-07T08:44:43.137Z,17.10
2018-10-07T08:47:12.025Z,17.00
2018-10-07T08:49:40.905Z,16.90
2018-10-07T08:52:09.753Z,16.90
2018-10-07T08:54:38.615Z,16.80
2018-10-07T08:57:07.743Z,16.80
2018-10-07T08:59:36.622Z,16.70
2018-10-07T09:02:10.971Z,16.70
2018-10-07T09:04:39.780Z,16.70
2018-10-07T09:07:08.624Z,16.70
2018-10-07T09:09:37.438Z,16.70
2018-10-07T09:12:06.507Z,16.60
2018-10-07T09:14:35.512Z,16.60
2018-10-07T09:17:04.327Z,16.50
2018-10-07T09:19:33.171Z,16.50
2018-10-07T09:22:01.984Z,16.50
2018-10-07T09:24:31.063Z,16.50
2018-10-07T09:26:59.935Z,16.40
2018-10-07T09:29:28.743Z,16.40
2018-10-07T09:31:57.566Z,16.40
2018-10-07T09:34:26.382Z,16.40
2018-10-07T09:36:55.199Z,16.40
2018-10-07T09:39:24.088Z,16.40
2018-10-07T09:41:52.839Z,16.40
2018-10-07T09:44:21.966Z,16.40
2018-10-07T09:46:51.113Z,16.40
2018-10-07T09:49:19.932Z,16.40
2018-10-07T09:51:48.747Z,16.40
2018-10-07T09:54:17.586Z,16.40
2018-10-07T09:56:46.403Z,16.30
2018-10-07T09:59:15.219Z,16.30
2018-10-07T10:01:44.048Z,16.20
2018-10-07T10:04:12.923Z,16.20
2018-10-07T10:06:41.730Z,16.20
2018-10-07T10:09:11.589Z,16.10
2018-10-07T10:11:40.443Z,16.10
2018-10-07T10:14:09.422Z,16.10
2018-10-07T10:16:45.259Z,16.00
2018-10-07T10:19:40.536Z,16.00
2018-10-07T10:22:19.866Z,16.00
2018-10-07T10:25:06.615Z,15.90
2018-10-07T10:27:48.639Z,15.90
2018-10-07T10:30:31.159Z,15.90
2018-10-07T10:33:17.318Z,15.90
2018-10-07T10:35:56.232Z,15.90
2018-10-07T10:40:37.787Z,15.80
2018-10-07T10:43:21.256Z,15.80
2018-10-07T10:46:27.094Z,15.70
2018-10-07T10:49:09.538Z,15.60
2018-10-07T10:51:51.731Z,15.60
2018-10-07T10:54:32.683Z,15.60
2018-10-07T10:57:10.509Z,15.60
2018-10-07T10:59:50.570Z,15.60
2018-10-07T11:02:32.252Z,15.60
2018-10-07T11:05:31.176Z,15.60
2018-10-07T11:08:19.923Z,15.60
2018-10-07T11:12:07.132Z,15.60
2018-10-07T11:17:09.247Z,15.60
2018-10-07T11:19:47.452Z,15.60
2018-10-07T11:22:44.092Z,15.60
2018-10-07T11:25:53.655Z,15.60
2018-10-07T11:28:38.428Z,15.60
2018-10-07T11:31:16.363Z,15.70
2018-10-07T11:34:03.678Z,15.70
2018-10-07T11:36:55.658Z,15.80
2018-10-07T11:39:37.007Z,15.90
2018-10-07T11:42:12.734Z,15.90
2018-10-07T11:44:56.173Z,15.90
2018-10-07T11:47:37.353Z,16.00
2018-10-07T11:50:12.731Z,16.10
2018-10-07T11:52:55.042Z,16.10
2018-10-07T11:55:24.015Z,16.10
2018-10-07T11:57:52.818Z,16.20
2018-10-07T12:00:21.692Z,16.20
2018-10-07T12:02:50.629Z,16.20
2018-10-07T12:05:19.355Z,16.20
2018-10-07T12:07:48.150Z,16.30
2018-10-07T12:10:17.001Z,16.30
2018-10-07T12:12:45.805Z,16.40
2018-10-07T12:15:14.623Z,16.40
2018-10-07T12:17:43.710Z,16.40
2018-10-07T12:20:12.580Z,16.40
2018-10-07T12:22:41.371Z,16.40
2018-10-07T12:25:10.186Z,16.50
2018-10-07T12:27:38.999Z,16.50
2018-10-07T12:30:08.375Z,16.50
2018-10-07T12:32:37.201Z,16.50
2018-10-07T12:35:06.024Z,16.50
2018-10-07T12:37:34.912Z,16.50
2018-10-07T12:40:04.168Z,16.60
2018-10-07T12:42:33.108Z,16.60
2018-10-07T12:45:01.831Z,16.60
2018-10-07T12:47:31.172Z,16.70
2018-10-07T12:49:59.976Z,16.70
2018-10-07T12:52:28.783Z,16.80
2018-10-07T12:54:57.596Z,16.80
2018-10-07T12:57:26.407Z,16.80
2018-10-07T12:59:55.204Z,16.80
2018-10-07T13:02:24.670Z,16.80
2018-10-07T13:04:53.515Z,16.80
2018-10-07T13:07:22.456Z,16.80
2018-10-07T13:09:51.279Z,16.80
2018-10-07T13:12:20.152Z,16.90
2018-10-07T13:14:48.947Z,16.80
2018-10-07T13:17:17.757Z,16.90
2018-10-07T13:19:46.559Z,16.90
2018-10-07T13:22:15.369Z,16.90
2018-10-07T13:24:44.608Z,16.90
2018-10-07T13:27:13.446Z,16.90
2018-10-07T13:29:42.396Z,16.90
2018-10-07T13:32:11.254Z,16.90
2018-10-07T13:34:40.113Z,17.00
2018-10-07T13:37:08.955Z,16.90
2018-10-07T13:39:37.802Z,16.90
2018-10-07T13:42:06.817Z,16.90
2018-10-07T13:44:35.619Z,16.90
2018-10-07T13:47:04.719Z,17.00
2018-10-07T13:49:33.812Z,17.00
2018-10-07T13:52:02.663Z,17.00
2018-10-07T13:54:31.521Z,17.00
2018-10-07T13:57:00.356Z,16.90
2018-10-07T13:59:29.150Z,16.90
2018-10-07T14:01:57.992Z,16.90
2018-10-07T14:04:26.847Z,16.90
2018-10-07T14:06:55.687Z,16.90
2018-10-07T14:09:25.035Z,16.90
2018-10-07T14:11:53.839Z,16.90
2018-10-07T14:14:22.681Z,16.90
2018-10-07T14:16:51.479Z,16.90
2018-10-07T14:19:20.309Z,16.90
2018-10-07T14:21:49.095Z,17.00
2018-10-07T14:24:17.923Z,17.00
2018-10-07T14:26:46.788Z,17.00
2018-10-07T14:29:15.606Z,17.00
2018-10-07T14:31:44.750Z,17.00
2018-10-07T14:34:16.542Z,17.00
2018-10-07T14:36:45.366Z,17.00
2018-10-07T14:39:14.409Z,17.00
2018-10-07T14:41:43.212Z,17.00
2018-10-07T14:44:12.025Z,17.00
2018-10-07T14:46:40.870Z,17.00
2018-10-07T14:49:09.674Z,17.00
2018-10-07T14:51:39.368Z,17.00
2018-10-07T14:54:08.155Z,17.00
2018-10-07T14:56:36.962Z,17.00
2018-10-07T14:59:06.064Z,17.00
2018-10-07T15:01:34.864Z,16.90
2018-10-07T15:04:03.642Z,17.00
2018-10-07T15:06:32.458Z,16.90
2018-10-07T15:09:01.268Z,16.90
2018-10-07T15:11:30.107Z,16.90
2018-10-07T15:13:59.303Z,17.00
2018-10-07T15:16:28.108Z,17.00
2018-10-07T15:18:56.918Z,16.90
2018-10-07T15:21:25.759Z,17.00
2018-10-07T15:23:54.559Z,17.00
2018-10-07T15:26:23.403Z,17.00
2018-10-07T15:28:52.240Z,17.00
2018-10-07T15:31:21.063Z,16.90
2018-10-07T15:33:49.852Z,16.90
2018-10-07T15:36:18.758Z,16.90
2018-10-07T15:38:47.575Z,16.90
2018-10-07T15:41:16.385Z,16.80
2018-10-07T15:43:45.206Z,16.80
2018-10-07T15:46:14.010Z,16.80
2018-10-07T15:48:42.808Z,16.80
2018-10-07T15:51:11.686Z,16.80
2018-10-07T15:53:40.820Z,16.80
2018-10-07T15:56:09.715Z,16.80
2018-10-07T15:58:38.638Z,16.70
2018-10-07T16:01:07.599Z,16.70
2018-10-07T16:03:36.463Z,16.70
2018-10-07T16:06:05.321Z,16.60
2018-10-07T16:08:34.194Z,16.60
2018-10-07T16:11:03.003Z,16.60
2018-10-07T16:13:31.825Z,16.60
2018-10-07T16:16:00.668Z,16.50
2018-10-07T16:18:29.556Z,16.50
2018-10-07T16:20:58.614Z,16.40
2018-10-07T16:23:27.467Z,16.40
2018-10-07T16:25:56.385Z,16.40
2018-10-07T16:28:25.191Z,16.30
2018-10-07T16:30:54.037Z,16.30
2018-10-07T16:33:22.856Z,16.30
2018-10-07T16:35:51.685Z,16.20
2018-10-07T16:38:20.488Z,16.20
2018-10-07T16:40:49.295Z,16.10
2018-10-07T16:43:18.378Z,16.10
2018-10-07T16:45:47.195Z,16.10
2018-10-07T16:48:15.995Z,16.00
2018-10-07T16:50:44.832Z,16.00
2018-10-07T16:53:13.635Z,15.90
2018-10-07T16:55:42.956Z,15.90
2018-10-07T16:58:11.750Z,15.90
2018-10-07T17:00:40.543Z,15.80
2018-10-07T17:03:09.350Z,15.80
2018-10-07T17:05:38.254Z,15.80
2018-10-07T17:08:07.056Z,15.70
2018-10-07T17:10:35.904Z,15.60
2018-10-07T17:13:04.769Z,15.60
2018-10-07T17:15:33.646Z,15.60
2018-10-07T17:18:02.443Z,15.50
2018-10-07T17:20:31.312Z,15.50
2018-10-07T17:23:00.125Z,15.50
2018-10-07T17:25:28.934Z,15.40
2018-10-07T17:27:57.855Z,15.40
2018-10-07T17:30:26.691Z,15.40
2018-10-07T17:32:55.556Z,15.30
2018-10-07T17:35:24.409Z,15.30
2018-10-07T17:37:53.218Z,15.20
2018-10-07T17:40:22.103Z,15.20
2018-10-07T17:42:51.099Z,15.10
2018-10-07T17:45:19.923Z,15.10
2018-10-07T17:47:48.733Z,15.00
2018-10-07T17:50:18.690Z,15.00
2018-10-07T17:52:47.492Z,15.00
2018-10-07T17:55:16.384Z,14.90
2018-10-07T17:57:45.598Z,14.90
2018-10-07T18:00:14.983Z,14.90
2018-10-07T18:02:43.856Z,14.90
2018-10-07T18:05:12.879Z,14.80
2018-10-07T18:07:41.723Z,14.80
2018-10-07T18:10:10.579Z,14.70
2018-10-07T18:12:39.943Z,14.70
2018-10-07T18:15:09.428Z,14.70
2018-10-07T18:20:14.306Z,14.70
2018-10-07T18:22:43.119Z,14.70
2018-10-07T18:25:11.935Z,14.70
2018-10-07T18:27:40.830Z,14.70
2018-10-07T18:30:09.661Z,14.70
2018-10-07T18:32:38.480Z,14.70
2018-10-07T18:35:08.544Z,14.60
2018-10-07T18:37:37.351Z,14.60
2018-10-07T18:40:08.135Z,14.60
2018-10-07T18:42:36.918Z,14.50
2018-10-07T18:45:05.762Z,14.50
2018-10-07T18:47:34.660Z,14.50
2018-10-07T18:50:03.504Z,14.40
2018-10-07T18:52:32.294Z,14.40
2018-10-07T18:55:01.129Z,14.40
2018-10-07T18:57:30.083Z,14.40
2018-10-07T18:59:59.219Z,14.30
2018-10-07T19:02:28.129Z,14.30
2018-10-07T19:04:56.911Z,14.30
2018-10-07T19:07:25.731Z,14.20
2018-10-07T19:09:54.522Z,14.20
2018-10-07T19:12:23.343Z,14.20
2018-10-07T19:14:52.155Z,14.10
2018-10-07T19:17:20.976Z,14.10
2018-10-07T19:19:49.903Z,14.10
2018-10-07T19:22:18.714Z,14.00
2018-10-07T19:24:47.551Z,14.00
2018-10-07T19:27:16.376Z,14.00
2018-10-07T19:29:45.191Z,13.90
2018-10-07T19:32:14.033Z,13.90
2018-10-07T19:34:42.823Z,13.80
2018-10-07T19:37:11.853Z,13.80
2018-10-07T19:39:40.475Z,13.80
2018-10-07T19:42:09.413Z,13.80
2018-10-07T19:44:38.277Z,13.70
2018-10-07T19:47:07.035Z,13.70
2018-10-07T19:49:36.011Z,13.70
2018-10-07T19:52:04.820Z,13.70
2018-10-07T19:54:33.638Z,13.70
2018-10-07T19:57:02.451Z,13.70
2018-10-07T19:59:31.292Z,13.70
2018-10-07T20:02:00.411Z,13.60
2018-10-07T20:04:29.492Z,13.60
2018-10-07T20:06:58.335Z,13.60
2018-10-07T20:09:27.191Z,13.60
2018-10-07T20:11:56.035Z,13.50
2018-10-07T20:14:24.854Z,13.50
2018-10-07T20:16:53.660Z,13.50
2018-10-07T20:19:22.555Z,13.50
2018-10-07T20:21:54.165Z,13.40
2018-10-07T20:24:23.140Z,13.40
2018-10-07T20:26:51.962Z,13.40
2018-10-07T20:29:20.783Z,13.40
2018-10-07T20:31:49.591Z,13.40
2018-10-07T20:34:18.403Z,13.30
2018-10-07T20:36:47.362Z,13.30
2018-10-07T20:39:16.179Z,13.30
2018-10-07T20:41:45.091Z,13.30
2018-10-07T20:44:13.920Z,13.30
2018-10-07T20:46:42.924Z,13.20
2018-10-07T20:49:11.775Z,13.20
2018-10-07T20:51:40.651Z,13.20
2018-10-07T20:54:09.509Z,13.10
2018-10-07T20:56:38.339Z,13.10
2018-10-07T20:59:07.159Z,13.10
2018-10-07T21:01:36.282Z,13.00
2018-10-07T21:04:05.728Z,13.00
2018-10-07T21:06:34.521Z,13.00
2018-10-07T21:09:03.994Z,12.90
2018-10-07T21:11:32.819Z,12.90
2018-10-07T21:14:04.471Z,12.90
2018-10-07T21:16:33.352Z,12.90
2018-10-07T21:19:02.178Z,12.80
2018-10-07T21:21:31.607Z,12.80
2018-10-07T21:24:00.639Z,12.80
2018-10-07T21:26:29.492Z,12.80
2018-10-07T21:28:58.387Z,12.80
2018-10-07T21:31:27.513Z,12.70
2018-10-07T21:33:56.349Z,12.70
2018-10-07T21:36:25.164Z,12.70
2018-10-07T21:38:54.017Z,12.70
2018-10-07T21:41:22.841Z,12.70
2018-10-07T21:43:51.654Z,12.60
2018-10-07T21:46:20.565Z,12.60
2018-10-07T21:48:49.340Z,12.60
2018-10-07T21:51:18.149Z,12.50
2018-10-07T21:53:47.073Z,12.50
2018-10-07T21:56:15.872Z,12.50
2018-10-07T21:58:44.723Z,12.50
2018-10-07T22:01:13.594Z,12.40
2018-10-07T22:03:42.386Z,12.40
2018-10-07T22:06:11.774Z,12.30
2018-10-07T22:08:40.587Z,12.30
2018-10-07T22:11:09.395Z,12.20
2018-10-07T22:13:38.293Z,12.20
2018-10-07T22:16:07.239Z,12.10
2018-10-07T22:18:36.117Z,12.10
2018-10-07T22:21:04.920Z,12.00
2018-10-07T22:23:33.723Z,12.00
2018-10-07T22:26:02.536Z,11.90
2018-10-07T22:28:31.349Z,11.90
2018-10-07T22:31:00.266Z,11.80
2018-10-07T22:33:29.111Z,11.80
2018-10-07T22:35:58.139Z,11.80
2018-10-07T22:38:27.453Z,11.70
2018-10-07T22:40:56.274Z,11.70
2018-10-07T22:43:25.071Z,11.60
2018-10-07T22:45:53.917Z,11.60
2018-10-07T22:48:22.752Z,11.60
2018-10-07T22:50:51.575Z,11.60
2018-10-07T22:53:20.387Z,11.60
2018-10-07T22:55:49.199Z,11.50
2018-10-07T22:58:18.015Z,11.50
2018-10-07T23:00:47.071Z,11.50
2018-10-07T23:03:15.903Z,11.50
2018-10-07T23:05:44.704Z,11.50
2018-10-07T23:08:13.971Z,11.50
2018-10-07T23:10:42.826Z,11.50
2018-10-07T23:13:11.660Z,11.40
2018-10-07T23:15:40.478Z,11.40
2018-10-07T23:18:09.281Z,11.40
2018-10-07T23:20:38.099Z,11.40
2018-10-07T23:23:07.591Z,11.40
2018-10-07T23:25:36.400Z,11.40
2018-10-07T23:28:05.227Z,11.40
2018-10-07T23:30:34.072Z,11.30
2018-10-07T23:33:02.890Z,11.40
2018-10-07T23:35:31.708Z,11.40
2018-10-07T23:38:00.631Z,11.30
2018-10-07T23:40:29.446Z,11.30
2018-10-07T23:42:58.257Z,11.30
2018-10-07T23:45:27.516Z,11.30
2018-10-07T23:47:56.322Z,11.30
2018-10-07T23:50:25.107Z,11.30
2018-10-07T23:52:53.939Z,11.30
2018-10-07T23:55:22.723Z,11.30
2018-10-07T23:57:51.529Z,11.30
